createdAt,value
2022-08-24T00:00:29.288Z,13.29
2022-08-24T00:01:29.284Z,13.19
2022-08-24T00:02:29.460Z,13.22
2022-08-24T00:03:34.495Z,13.15
2022-08-24T00:04:32.215Z,13.23
2022-08-24T00:05:29.231Z,13.15
2022-08-24T00:06:29.232Z,13.12
2022-08-24T00:07:29.249Z,13.14
2022-08-24T00:08:29.227Z,13.17
2022-08-24T00:09:29.226Z,13.26
2022-08-24T00:10:29.195Z,13.20
2022-08-24T00:11:29.161Z,13.26
2022-08-24T00:12:29.152Z,13.23
2022-08-24T00:13:29.427Z,13.23
2022-08-24T00:14:29.165Z,13.26
2022-08-24T00:15:29.125Z,13.23
2022-08-24T00:16:29.154Z,13.23
2022-08-24T00:17:29.093Z,13.17
2022-08-24T00:18:29.086Z,13.08
2022-08-24T00:19:29.166Z,13.11
2022-08-24T00:20:29.070Z,13.00
2022-08-24T00:21:29.065Z,13.01
2022-08-24T00:22:29.044Z,12.96
2022-08-24T00:23:29.027Z,13.00
2022-08-24T00:24:29.022Z,13.01
2022-08-24T00:25:29.052Z,12.97
2022-08-24T00:26:29.421Z,13.00
2022-08-24T00:27:28.981Z,13.00
2022-08-24T00:28:28.972Z,13.01
2022-08-24T00:29:28.959Z,12.97
2022-08-24T00:30:28.959Z,12.95
2022-08-24T00:31:29.041Z,12.92
2022-08-24T00:32:28.951Z,12.95
2022-08-24T00:33:28.915Z,12.89
2022-08-24T00:34:28.907Z,12.90
2022-08-24T00:35:28.892Z,12.96
2022-08-24T00:36:28.900Z,12.96
2022-08-24T00:37:28.932Z,12.92
2022-08-24T00:38:29.713Z,12.95
2022-08-24T00:39:28.887Z,12.96
2022-08-24T00:40:28.931Z,12.95
2022-08-24T00:41:28.836Z,12.92
2022-08-24T00:42:28.818Z,12.92
2022-08-24T00:43:28.827Z,12.92
2022-08-24T00:44:28.825Z,12.86
2022-08-24T00:45:28.878Z,12.89
2022-08-24T00:46:28.774Z,12.87
2022-08-24T00:47:28.767Z,12.89
2022-08-24T00:48:28.750Z,12.87
2022-08-24T00:49:28.766Z,12.87
2022-08-24T00:50:28.727Z,12.92
2022-08-24T00:51:28.737Z,12.90
2022-08-24T00:52:28.704Z,12.93
2022-08-24T00:53:28.706Z,12.93
2022-08-24T00:54:28.690Z,12.97
2022-08-24T00:55:28.702Z,12.97
2022-08-24T00:56:28.692Z,12.96
2022-08-24T00:57:28.648Z,13.03
2022-08-24T00:58:28.640Z,13.00
2022-08-24T00:59:28.626Z,12.90
2022-08-24T01:00:29.439Z,12.96
2022-08-24T01:01:28.707Z,12.92
2022-08-24T01:02:28.673Z,12.90
2022-08-24T01:03:28.583Z,12.92
2022-08-24T01:04:28.578Z,12.92
2022-08-24T01:05:28.559Z,12.89
2022-08-24T01:06:28.594Z,12.92
2022-08-24T01:07:28.567Z,12.85
2022-08-24T01:08:28.527Z,12.85
2022-08-24T01:09:28.516Z,12.79
2022-08-24T01:10:28.518Z,12.82
2022-08-24T01:11:30.868Z,12.74
2022-08-24T01:12:29.521Z,12.71
2022-08-24T01:13:28.509Z,12.79
2022-08-24T01:14:28.460Z,12.79
2022-08-24T01:15:28.447Z,12.77
2022-08-24T01:16:28.476Z,12.83
2022-08-24T01:17:28.439Z,12.86
2022-08-24T01:18:28.444Z,12.77
2022-08-24T01:19:28.409Z,12.83
2022-08-24T01:20:28.414Z,12.77
2022-08-24T01:21:28.393Z,12.83
2022-08-24T01:22:28.469Z,12.83
2022-08-24T01:23:28.409Z,12.87
2022-08-24T01:24:29.348Z,12.83
2022-08-24T01:25:28.381Z,12.86
2022-08-24T01:26:28.338Z,12.82
2022-08-24T01:27:28.363Z,12.87
2022-08-24T01:28:28.310Z,12.77
2022-08-24T01:29:28.307Z,12.82
2022-08-24T01:30:30.566Z,12.85
2022-08-24T01:31:29.554Z,12.85
2022-08-24T01:32:28.278Z,12.86
2022-08-24T01:33:28.274Z,12.74
2022-08-24T01:34:28.248Z,12.71
2022-08-24T01:35:28.255Z,12.67
2022-08-24T01:36:28.757Z,12.65
2022-08-24T01:37:28.205Z,12.64
2022-08-24T01:38:28.206Z,12.56
2022-08-24T01:39:28.186Z,12.64
2022-08-24T01:40:28.314Z,12.70
2022-08-24T01:41:29.257Z,12.57
2022-08-24T01:42:28.150Z,12.49
2022-08-24T01:43:28.137Z,12.52
2022-08-24T01:44:28.145Z,12.52
2022-08-24T01:45:28.156Z,12.47
2022-08-24T01:46:28.155Z,12.49
2022-08-24T01:47:28.092Z,12.39
2022-08-24T01:48:28.083Z,12.46
2022-08-24T01:49:28.101Z,12.52
2022-08-24T01:50:28.086Z,12.50
2022-08-24T01:51:28.061Z,12.41
2022-08-24T01:52:43.388Z,12.49
2022-08-24T01:53:29.047Z,12.47
2022-08-24T01:54:28.016Z,12.50
2022-08-24T01:55:28.049Z,12.41
2022-08-24T01:56:28.011Z,12.41
2022-08-24T01:57:27.998Z,12.45
2022-08-24T01:58:27.974Z,12.50
2022-08-24T01:59:27.961Z,12.50
2022-08-24T02:00:27.965Z,12.46
2022-08-24T02:01:28.005Z,12.50
2022-08-24T02:02:27.981Z,12.52
2022-08-24T02:03:30.460Z,12.53
2022-08-24T02:04:27.909Z,12.45
2022-08-24T02:05:27.895Z,12.52
2022-08-24T02:06:27.913Z,12.47
2022-08-24T02:07:27.891Z,12.56
2022-08-24T02:08:27.901Z,12.59
2022-08-24T02:09:27.882Z,12.52
2022-08-24T02:10:27.837Z,12.56
2022-08-24T02:11:27.826Z,12.53
2022-08-24T02:12:27.821Z,12.47
2022-08-24T02:13:27.838Z,12.65
2022-08-24T02:14:29.876Z,12.53
2022-08-24T02:15:28.779Z,12.60
2022-08-24T02:16:27.865Z,12.59
2022-08-24T02:17:27.769Z,12.57
2022-08-24T02:18:27.778Z,12.49
2022-08-24T02:19:27.742Z,12.45
2022-08-24T02:20:27.756Z,12.41
2022-08-24T02:21:27.713Z,12.42
2022-08-24T02:22:27.704Z,12.39
2022-08-24T02:23:27.691Z,12.37
2022-08-24T02:24:27.710Z,12.28
2022-08-24T02:25:27.691Z,12.38
2022-08-24T02:26:31.447Z,12.41
2022-08-24T02:27:27.646Z,12.41
2022-08-24T02:28:27.655Z,12.35
2022-08-24T02:29:27.670Z,12.34
2022-08-24T02:30:27.615Z,12.31
2022-08-24T02:31:27.720Z,12.39
2022-08-24T02:32:27.591Z,12.35
2022-08-24T02:33:27.581Z,12.35
2022-08-24T02:34:27.589Z,12.31
2022-08-24T02:35:27.567Z,12.23
2022-08-24T02:36:27.549Z,12.21
2022-08-24T02:37:27.564Z,12.27
2022-08-24T02:38:27.524Z,12.20
2022-08-24T02:39:27.534Z,12.29
2022-08-24T02:40:27.627Z,12.24
2022-08-24T02:41:27.509Z,12.28
2022-08-24T02:42:27.489Z,12.28
2022-08-24T02:43:27.541Z,12.29
2022-08-24T02:44:27.458Z,12.31
2022-08-24T02:45:27.447Z,12.24
2022-08-24T02:46:27.548Z,12.29
2022-08-24T02:47:37.976Z,12.32
2022-08-24T02:48:28.438Z,12.35
2022-08-24T02:49:27.434Z,12.38
2022-08-24T02:50:27.429Z,12.35
2022-08-24T02:51:27.404Z,12.35
2022-08-24T02:52:27.409Z,12.38
2022-08-24T02:53:27.360Z,12.38
2022-08-24T02:54:27.355Z,12.31
2022-08-24T02:55:27.372Z,12.35
2022-08-24T02:56:27.325Z,12.35
2022-08-24T02:57:27.339Z,12.29
2022-08-24T02:58:27.313Z,12.37
2022-08-24T02:59:27.327Z,12.29
2022-08-24T03:00:27.292Z,12.16
2022-08-24T03:01:30.449Z,12.20
2022-08-24T03:02:27.319Z,12.13
2022-08-24T03:03:27.273Z,12.13
2022-08-24T03:04:27.236Z,11.99
2022-08-24T03:05:27.249Z,11.98
2022-08-24T03:06:27.256Z,12.07
2022-08-24T03:07:27.208Z,11.98
2022-08-24T03:08:27.202Z,11.83
2022-08-24T03:09:28.865Z,11.90
2022-08-24T03:10:27.168Z,11.91
2022-08-24T03:11:28.443Z,11.85
2022-08-24T03:12:27.188Z,11.85
2022-08-24T03:13:27.193Z,11.79
2022-08-24T03:14:27.141Z,11.82
2022-08-24T03:15:27.575Z,11.76
2022-08-24T03:16:27.108Z,11.86
2022-08-24T03:17:27.105Z,11.75
2022-08-24T03:18:27.080Z,11.73
2022-08-24T03:19:27.078Z,11.85
2022-08-24T03:20:27.080Z,11.78
2022-08-24T03:21:27.081Z,11.69
2022-08-24T03:22:27.081Z,11.76
2022-08-24T03:23:27.041Z,11.80
2022-08-24T03:24:27.012Z,11.83
2022-08-24T03:25:27.015Z,11.80
2022-08-24T03:26:26.994Z,11.85
2022-08-24T03:27:26.984Z,11.79
2022-08-24T03:28:27.007Z,11.86
2022-08-24T03:29:26.985Z,11.88
2022-08-24T03:30:26.982Z,11.73
2022-08-24T03:31:26.952Z,11.83
2022-08-24T03:32:26.931Z,11.85
2022-08-24T03:33:26.921Z,11.80
2022-08-24T03:34:26.926Z,11.86
2022-08-24T03:35:26.893Z,11.79
2022-08-24T03:36:26.881Z,11.79
2022-08-24T03:37:26.885Z,11.91
2022-08-24T03:38:26.890Z,11.96
2022-08-24T03:39:26.891Z,11.94
2022-08-24T03:40:26.937Z,11.98
2022-08-24T03:41:26.861Z,11.99
2022-08-24T03:42:26.816Z,12.01
2022-08-24T03:43:26.834Z,11.98
2022-08-24T03:44:26.792Z,11.90
2022-08-24T03:45:26.798Z,11.95
2022-08-24T03:46:26.803Z,11.94
2022-08-24T03:47:26.796Z,11.95
2022-08-24T03:48:26.748Z,11.94
2022-08-24T03:49:26.757Z,11.90
2022-08-24T03:50:26.729Z,11.94
2022-08-24T03:51:26.734Z,11.90
2022-08-24T03:52:28.267Z,11.94
2022-08-24T03:53:26.714Z,11.95
2022-08-24T03:54:26.693Z,11.95
2022-08-24T03:55:26.695Z,11.98
2022-08-24T03:56:26.672Z,12.09
2022-08-24T03:57:26.673Z,11.91
2022-08-24T03:58:26.637Z,11.96
2022-08-24T03:59:26.649Z,11.98
2022-08-24T04:00:26.636Z,11.95
2022-08-24T04:01:26.745Z,11.95
2022-08-24T04:02:31.139Z,11.98
2022-08-24T04:03:27.603Z,11.91
2022-08-24T04:04:26.570Z,12.02
2022-08-24T04:05:26.561Z,11.96
2022-08-24T04:06:26.600Z,11.90
2022-08-24T04:07:26.539Z,11.88
2022-08-24T04:08:26.532Z,12.05
2022-08-24T04:09:26.516Z,12.01
2022-08-24T04:10:26.547Z,12.02
2022-08-24T04:11:26.502Z,12.04
2022-08-24T04:12:26.506Z,12.12
2022-08-24T04:13:26.478Z,12.04
2022-08-24T04:14:27.378Z,12.17
2022-08-24T04:15:26.450Z,12.09
2022-08-24T04:16:26.546Z,12.10
2022-08-24T04:17:26.430Z,12.05
2022-08-24T04:18:28.757Z,11.96
2022-08-24T04:19:26.416Z,11.98
2022-08-24T04:20:26.418Z,11.91
2022-08-24T04:21:26.383Z,11.90
2022-08-24T04:22:26.392Z,11.86
2022-08-24T04:23:29.014Z,11.80
2022-08-24T04:24:27.374Z,11.86
2022-08-24T04:25:26.359Z,11.85
2022-08-24T04:26:44.372Z,11.88
2022-08-24T04:27:27.345Z,11.82
2022-08-24T04:28:26.303Z,11.70
2022-08-24T04:29:26.326Z,11.78
2022-08-24T04:30:26.297Z,11.78
2022-08-24T04:31:26.372Z,11.78
2022-08-24T04:32:26.259Z,11.73
2022-08-24T04:33:26.249Z,11.72
2022-08-24T04:34:26.257Z,11.80
2022-08-24T04:35:26.251Z,11.83
2022-08-24T04:36:26.242Z,11.88
2022-08-24T04:37:28.163Z,11.88
2022-08-24T04:38:26.191Z,11.90
2022-08-24T04:39:26.182Z,11.88
2022-08-24T04:40:26.279Z,11.95
2022-08-24T04:41:31.373Z,11.96
2022-08-24T04:42:27.194Z,11.98
2022-08-24T04:43:26.156Z,11.98
2022-08-24T04:44:26.126Z,11.98
2022-08-24T04:45:26.170Z,11.98
2022-08-24T04:46:26.112Z,11.95
2022-08-24T04:47:26.130Z,12.07
2022-08-24T04:48:26.105Z,12.01
2022-08-24T04:49:26.072Z,12.01
2022-08-24T04:50:26.059Z,12.04
2022-08-24T04:51:26.049Z,12.04
2022-08-24T04:52:26.044Z,12.04
2022-08-24T04:53:26.061Z,11.96
2022-08-24T04:54:26.049Z,11.98
2022-08-24T04:55:26.005Z,11.95
2022-08-24T04:56:25.994Z,11.96
2022-08-24T04:57:26.016Z,12.01
2022-08-24T04:58:25.971Z,11.95
2022-08-24T04:59:25.974Z,12.05
2022-08-24T05:00:25.979Z,11.98
2022-08-24T05:01:25.938Z,11.96
2022-08-24T05:02:26.029Z,12.02
2022-08-24T05:03:25.927Z,12.05
2022-08-24T05:04:25.905Z,12.14
2022-08-24T05:05:25.914Z,12.19
2022-08-24T05:06:25.912Z,12.05
2022-08-24T05:07:26.488Z,12.12
2022-08-24T05:08:34.057Z,12.14
2022-08-24T05:09:25.864Z,12.13
2022-08-24T05:10:25.844Z,12.17
2022-08-24T05:11:26.861Z,12.31
2022-08-24T05:12:25.815Z,12.24
2022-08-24T05:13:25.806Z,12.29
2022-08-24T05:14:28.868Z,12.34
2022-08-24T05:15:25.814Z,12.32
2022-08-24T05:16:25.906Z,12.29
2022-08-24T05:17:25.775Z,12.46
2022-08-24T05:18:25.755Z,12.38
2022-08-24T05:19:25.741Z,12.37
2022-08-24T05:20:25.762Z,12.34
2022-08-24T05:21:25.716Z,12.50
2022-08-24T05:22:25.715Z,12.47
2022-08-24T05:23:25.733Z,12.37
2022-08-24T05:24:25.724Z,12.57
2022-08-24T05:25:25.673Z,12.50
2022-08-24T05:26:25.673Z,12.57
2022-08-24T05:27:25.654Z,12.62
2022-08-24T05:28:25.654Z,12.70
2022-08-24T05:29:25.669Z,12.82
2022-08-24T05:30:25.620Z,12.70
2022-08-24T05:31:25.615Z,12.83
2022-08-24T05:32:25.592Z,12.83
2022-08-24T05:33:25.630Z,12.86
2022-08-24T05:34:25.589Z,12.86
2022-08-24T05:35:25.565Z,12.89
2022-08-24T05:36:25.574Z,12.92
2022-08-24T05:37:25.541Z,12.96
2022-08-24T05:38:25.525Z,12.96
2022-08-24T05:39:25.532Z,13.00
2022-08-24T05:40:25.585Z,13.03
2022-08-24T05:41:26.505Z,13.12
2022-08-24T05:42:25.503Z,13.17
2022-08-24T05:43:25.483Z,13.17
2022-08-24T05:44:29.196Z,13.14
2022-08-24T05:45:26.481Z,13.12
2022-08-24T05:46:25.510Z,13.25
2022-08-24T05:47:25.433Z,13.29
2022-08-24T05:48:25.416Z,13.28
2022-08-24T05:49:25.420Z,13.30
2022-08-24T05:50:25.423Z,13.30
2022-08-24T05:51:25.395Z,13.45
2022-08-24T05:52:25.372Z,13.46
2022-08-24T05:53:25.379Z,13.49
2022-08-24T05:54:25.350Z,13.51
2022-08-24T05:55:25.370Z,13.57
2022-08-24T05:56:29.986Z,13.60
2022-08-24T05:57:26.316Z,13.57
2022-08-24T05:58:30.703Z,13.59
2022-08-24T05:59:26.340Z,13.64
2022-08-24T06:00:25.294Z,13.62
2022-08-24T06:01:25.354Z,13.75
2022-08-24T06:02:25.356Z,13.75
2022-08-24T06:03:25.252Z,13.81
2022-08-24T06:04:25.260Z,13.88
2022-08-24T06:05:25.292Z,13.89
2022-08-24T06:06:25.251Z,13.92
2022-08-24T06:07:25.244Z,13.91
2022-08-24T06:08:25.221Z,13.89
2022-08-24T06:09:25.185Z,14.03
2022-08-24T06:10:39.706Z,14.06
2022-08-24T06:11:29.969Z,14.20
2022-08-24T06:12:25.156Z,14.20
2022-08-24T06:13:25.152Z,14.22
2022-08-24T06:14:27.035Z,14.32
2022-08-24T06:15:25.119Z,14.33
2022-08-24T06:16:25.157Z,14.33
2022-08-24T06:17:25.313Z,14.47
2022-08-24T06:18:25.117Z,14.50
2022-08-24T06:19:25.091Z,14.55
2022-08-24T06:20:25.133Z,14.47
2022-08-24T06:21:25.065Z,14.65
2022-08-24T06:22:25.038Z,14.70
2022-08-24T06:23:25.053Z,14.78
2022-08-24T06:24:25.023Z,14.80
2022-08-24T06:25:25.014Z,14.89
2022-08-24T06:26:25.026Z,14.92
2022-08-24T06:27:24.984Z,14.95
2022-08-24T06:28:24.973Z,14.98
2022-08-24T06:29:25.002Z,15.03
2022-08-24T06:30:30.769Z,15.06
2022-08-24T06:31:25.988Z,15.17
2022-08-24T06:32:24.974Z,15.13
2022-08-24T06:33:24.919Z,15.13
2022-08-24T06:34:24.909Z,15.28
2022-08-24T06:35:24.900Z,15.34
2022-08-24T06:36:24.903Z,15.31
2022-08-24T06:37:24.874Z,15.47
2022-08-24T06:38:24.906Z,15.44
2022-08-24T06:39:24.848Z,15.51
2022-08-24T06:40:24.943Z,15.65
2022-08-24T06:41:24.836Z,15.62
2022-08-24T06:42:24.851Z,15.67
2022-08-24T06:43:24.811Z,15.71
2022-08-24T06:44:24.816Z,15.76
2022-08-24T06:45:24.783Z,15.82
2022-08-24T06:46:27.438Z,15.96
2022-08-24T06:47:25.761Z,16.07
2022-08-24T06:48:24.774Z,16.04
2022-08-24T06:49:24.792Z,16.14
2022-08-24T06:50:24.777Z,16.14
2022-08-24T06:51:24.720Z,16.34
2022-08-24T06:52:24.703Z,16.28
2022-08-24T06:53:24.695Z,16.35
2022-08-24T06:54:24.703Z,16.43
2022-08-24T06:55:24.709Z,16.43
2022-08-24T06:56:24.722Z,16.58
2022-08-24T06:57:24.662Z,16.67
2022-08-24T06:58:24.639Z,16.73
2022-08-24T06:59:24.781Z,16.81
2022-08-24T07:00:24.707Z,16.83
2022-08-24T07:01:24.741Z,17.04
2022-08-24T07:02:24.645Z,17.01
2022-08-24T07:03:24.577Z,16.98
2022-08-24T07:04:28.017Z,17.11
2022-08-24T07:05:24.556Z,17.18
2022-08-24T07:06:24.547Z,17.31
2022-08-24T07:07:24.565Z,17.38
2022-08-24T07:08:24.535Z,17.38
2022-08-24T07:09:24.694Z,17.49
2022-08-24T07:10:24.517Z,17.49
2022-08-24T07:11:24.525Z,17.62
2022-08-24T07:12:24.518Z,17.72
2022-08-24T07:13:24.474Z,17.79
2022-08-24T07:14:24.473Z,17.81
2022-08-24T07:15:24.452Z,17.89
2022-08-24T07:16:24.531Z,17.99
2022-08-24T07:17:24.472Z,18.11
2022-08-24T07:18:24.410Z,18.11
2022-08-24T07:19:24.407Z,18.11
2022-08-24T07:20:24.389Z,18.26
2022-08-24T07:21:24.390Z,18.25
2022-08-24T07:22:24.389Z,18.37
2022-08-24T07:23:34.571Z,18.48
2022-08-24T07:24:25.355Z,18.58
2022-08-24T07:25:24.343Z,18.70
2022-08-24T07:26:24.353Z,18.76
2022-08-24T07:27:24.318Z,18.98
2022-08-24T07:28:27.716Z,18.85
2022-08-24T07:29:46.303Z,18.99
2022-08-24T07:30:27.300Z,19.13
2022-08-24T07:31:24.355Z,19.33
2022-08-24T07:32:24.260Z,19.55
2022-08-24T07:33:24.266Z,19.81
2022-08-24T07:34:24.264Z,19.96
2022-08-24T07:35:24.219Z,20.10
2022-08-24T07:36:24.210Z,20.28
2022-08-24T07:37:24.212Z,20.32
2022-08-24T07:38:24.207Z,20.38
2022-08-24T07:39:24.201Z,20.23
2022-08-24T07:40:24.318Z,20.10
2022-08-24T07:42:31.217Z,19.86
2022-08-24T07:43:25.155Z,19.74
2022-08-24T07:44:24.141Z,19.83
2022-08-24T07:45:24.108Z,19.77
2022-08-24T07:46:24.189Z,19.73
2022-08-24T07:47:44.600Z,19.66
2022-08-24T07:48:25.087Z,19.65
2022-08-24T07:49:37.149Z,19.56
2022-08-24T07:50:25.056Z,19.58
2022-08-24T07:51:24.066Z,19.54
2022-08-24T07:52:24.081Z,19.48
2022-08-24T07:53:32.324Z,19.47
2022-08-24T07:54:25.026Z,19.40
2022-08-24T07:55:24.044Z,19.44
2022-08-24T07:56:24.016Z,19.43
2022-08-24T07:57:23.974Z,19.44
2022-08-24T07:58:23.991Z,19.41
2022-08-24T07:59:23.960Z,19.39
2022-08-24T08:00:23.943Z,19.43
2022-08-24T08:01:24.018Z,19.47
2022-08-24T08:02:24.013Z,19.55
2022-08-24T08:03:24.936Z,19.51
2022-08-24T08:04:23.899Z,19.51
2022-08-24T08:05:23.894Z,19.58
2022-08-24T08:06:23.878Z,19.56
2022-08-24T08:07:23.877Z,19.55
2022-08-24T08:08:23.905Z,19.48
2022-08-24T08:09:23.844Z,19.48
2022-08-24T08:10:23.841Z,19.51
2022-08-24T08:11:23.836Z,19.58
2022-08-24T08:12:23.846Z,19.47
2022-08-24T08:13:23.824Z,19.48
2022-08-24T08:14:23.819Z,19.61
2022-08-24T08:15:23.876Z,19.59
2022-08-24T08:16:23.826Z,19.65
2022-08-24T08:17:23.754Z,19.73
2022-08-24T08:18:23.789Z,19.71
2022-08-24T08:19:23.754Z,19.77
2022-08-24T08:20:23.722Z,19.87
2022-08-24T08:21:23.722Z,19.92
2022-08-24T08:22:23.704Z,20.03
2022-08-24T08:23:23.687Z,20.06
2022-08-24T08:24:23.703Z,20.11
2022-08-24T08:25:23.703Z,20.18
2022-08-24T08:26:23.655Z,20.14
2022-08-24T08:27:23.679Z,20.18
2022-08-24T08:28:25.932Z,20.24
2022-08-24T08:29:24.640Z,20.23
2022-08-24T08:30:23.628Z,20.26
2022-08-24T08:31:23.705Z,20.31
2022-08-24T08:32:23.589Z,20.16
2022-08-24T08:33:23.715Z,20.28
2022-08-24T08:34:23.587Z,20.23
2022-08-24T08:35:23.564Z,20.39
2022-08-24T08:36:23.565Z,20.39
2022-08-24T08:37:23.541Z,20.36
2022-08-24T08:38:23.540Z,20.48
2022-08-24T08:39:23.547Z,20.64
2022-08-24T08:40:23.539Z,20.69
2022-08-24T08:41:26.555Z,20.61
2022-08-24T08:42:23.477Z,20.77
2022-08-24T08:43:23.465Z,20.80
2022-08-24T08:44:23.456Z,20.92
2022-08-24T08:45:23.467Z,20.84
2022-08-24T08:46:23.524Z,21.01
2022-08-24T08:47:23.468Z,20.95
2022-08-24T08:48:23.451Z,21.04
2022-08-24T08:49:23.399Z,21.12
2022-08-24T08:50:23.389Z,21.14
2022-08-24T08:51:23.391Z,21.13
2022-08-24T08:52:23.374Z,21.21
2022-08-24T08:53:23.384Z,21.22
2022-08-24T08:54:23.376Z,21.17
2022-08-24T08:55:23.334Z,21.31
2022-08-24T08:56:23.750Z,21.35
2022-08-24T08:57:23.309Z,21.42
2022-08-24T08:58:23.314Z,21.43
2022-08-24T08:59:23.322Z,21.37
2022-08-24T09:00:23.279Z,21.35
2022-08-24T09:01:23.304Z,21.32
2022-08-24T09:02:23.268Z,21.34
2022-08-24T09:03:23.244Z,21.32
2022-08-24T09:04:23.360Z,21.28
2022-08-24T09:05:23.224Z,21.34
2022-08-24T09:06:23.213Z,21.37
2022-08-24T09:07:23.198Z,21.44
2022-08-24T09:08:23.210Z,21.42
2022-08-24T09:09:23.224Z,21.49
2022-08-24T09:10:23.192Z,21.44
2022-08-24T09:11:23.156Z,21.40
2022-08-24T09:12:23.146Z,21.29
2022-08-24T09:13:23.156Z,21.34
2022-08-24T09:14:23.238Z,21.38
2022-08-24T09:15:23.125Z,21.37
2022-08-24T09:16:23.141Z,21.46
2022-08-24T09:17:23.098Z,21.44
2022-08-24T09:18:23.077Z,21.47
2022-08-24T09:19:23.103Z,21.43
2022-08-24T09:20:23.088Z,21.53
2022-08-24T09:21:23.100Z,21.42
2022-08-24T09:22:23.032Z,21.54
2022-08-24T09:23:23.026Z,21.64
2022-08-24T09:24:23.011Z,21.62
2022-08-24T09:25:26.461Z,21.65
2022-08-24T09:26:22.992Z,21.72
2022-08-24T09:27:22.986Z,21.80
2022-08-24T09:28:22.965Z,21.86
2022-08-24T09:29:22.962Z,21.92
2022-08-24T09:30:22.944Z,22.00
2022-08-24T09:31:23.112Z,21.92
2022-08-24T09:32:22.931Z,21.92
2022-08-24T09:33:22.928Z,21.98
2022-08-24T09:34:22.899Z,22.05
2022-08-24T09:35:26.645Z,22.05
2022-08-24T09:36:22.880Z,22.10
2022-08-24T09:37:23.137Z,22.24
2022-08-24T09:38:22.896Z,22.27
2022-08-24T09:39:24.793Z,22.37
2022-08-24T09:40:22.941Z,22.37
2022-08-24T09:41:22.828Z,22.45
2022-08-24T09:42:22.825Z,22.58
2022-08-24T09:43:22.804Z,22.72
2022-08-24T09:44:22.809Z,22.80
2022-08-24T09:45:22.808Z,22.83
2022-08-24T09:46:22.783Z,23.04
2022-08-24T09:47:22.790Z,23.07
2022-08-24T09:48:22.760Z,23.17
2022-08-24T09:49:22.740Z,23.22
2022-08-24T09:50:22.738Z,23.33
2022-08-24T09:51:22.745Z,23.32
2022-08-24T09:52:22.699Z,23.35
2022-08-24T09:53:22.707Z,23.31
2022-08-24T09:54:22.707Z,23.40
2022-08-24T09:55:22.707Z,23.46
2022-08-24T09:56:22.653Z,23.40
2022-08-24T09:57:25.205Z,23.35
2022-08-24T09:58:23.646Z,23.36
2022-08-24T09:59:22.638Z,23.32
2022-08-24T10:00:22.611Z,23.23
2022-08-24T10:01:22.761Z,23.16
2022-08-24T10:02:22.689Z,23.04
2022-08-24T10:03:25.316Z,23.05
2022-08-24T10:04:23.748Z,23.02
2022-08-24T10:05:22.692Z,22.98
2022-08-24T10:06:22.661Z,23.07
2022-08-24T10:07:22.548Z,23.04
2022-08-24T10:08:22.552Z,22.97
2022-08-24T10:09:24.103Z,23.04
2022-08-24T10:10:22.502Z,23.07
2022-08-24T10:11:22.524Z,23.09
2022-08-24T10:12:22.515Z,23.07
2022-08-24T10:13:22.493Z,23.10
2022-08-24T10:14:22.458Z,23.13
2022-08-24T10:15:22.443Z,23.10
2022-08-24T10:16:22.547Z,23.00
2022-08-24T10:17:22.424Z,22.97
2022-08-24T10:18:22.433Z,22.98
2022-08-24T10:19:22.424Z,22.98
2022-08-24T10:20:22.432Z,22.94
2022-08-24T10:21:22.400Z,22.86
2022-08-24T10:22:22.379Z,22.85
2022-08-24T10:23:22.365Z,22.88
2022-08-24T10:24:24.756Z,22.80
2022-08-24T10:25:23.331Z,22.85
2022-08-24T10:26:22.347Z,22.79
2022-08-24T10:27:22.341Z,22.80
2022-08-24T10:28:22.323Z,22.80
2022-08-24T10:29:22.297Z,22.79
2022-08-24T10:30:23.786Z,22.73
2022-08-24T10:31:23.325Z,22.77
2022-08-24T10:32:22.313Z,22.80
2022-08-24T10:33:22.261Z,22.79
2022-08-24T10:34:22.234Z,22.79
2022-08-24T10:35:22.243Z,22.65
2022-08-24T10:36:22.238Z,22.75
2022-08-24T10:37:22.201Z,22.73
2022-08-24T10:38:22.221Z,22.75
2022-08-24T10:39:22.191Z,22.83
2022-08-24T10:40:22.183Z,22.76
2022-08-24T10:41:22.183Z,22.68
2022-08-24T10:42:22.148Z,22.79
2022-08-24T10:43:23.959Z,22.68
2022-08-24T10:44:22.153Z,22.68
2022-08-24T10:45:22.181Z,22.80
2022-08-24T10:46:22.108Z,22.68
2022-08-24T10:47:22.114Z,22.65
2022-08-24T10:48:22.080Z,22.70
2022-08-24T10:49:22.071Z,22.68
2022-08-24T10:50:22.085Z,22.65
2022-08-24T10:51:22.064Z,22.72
2022-08-24T10:52:22.046Z,22.67
2022-08-24T10:53:22.058Z,22.70
2022-08-24T10:54:22.049Z,22.70
2022-08-24T10:55:22.003Z,22.72
2022-08-24T10:56:21.998Z,22.72
2022-08-24T10:57:21.987Z,22.68
2022-08-24T10:58:21.978Z,22.77
2022-08-24T10:59:21.997Z,22.80
2022-08-24T11:00:23.212Z,22.97
2022-08-24T11:01:22.058Z,22.95
2022-08-24T11:02:21.969Z,23.05
2022-08-24T11:03:24.086Z,23.04
2022-08-24T11:04:22.902Z,23.07
2022-08-24T11:05:21.898Z,23.20
2022-08-24T11:06:21.895Z,23.38
2022-08-24T11:07:21.896Z,23.33
2022-08-24T11:08:21.874Z,23.32
2022-08-24T11:09:21.882Z,23.27
2022-08-24T11:10:21.858Z,23.22
2022-08-24T11:11:22.833Z,23.20
2022-08-24T11:12:21.836Z,23.16
2022-08-24T11:13:21.806Z,23.20
2022-08-24T11:14:21.790Z,23.19
2022-08-24T11:15:21.798Z,23.17
2022-08-24T11:16:21.835Z,23.13
2022-08-24T11:17:21.805Z,23.25
2022-08-24T11:18:21.747Z,23.28
2022-08-24T11:19:21.745Z,23.33
2022-08-24T11:20:21.761Z,23.32
2022-08-24T11:21:21.738Z,23.20
2022-08-24T11:22:21.742Z,23.22
2022-08-24T11:23:21.845Z,23.19
2022-08-24T11:24:21.683Z,23.33
2022-08-24T11:25:21.685Z,23.35
2022-08-24T11:26:21.667Z,23.39
2022-08-24T11:27:21.680Z,23.36
2022-08-24T11:28:21.637Z,23.36
2022-08-24T11:29:21.636Z,23.35
2022-08-24T11:30:21.622Z,23.40
2022-08-24T11:31:21.680Z,23.40
2022-08-24T11:32:21.605Z,23.32
2022-08-24T11:33:21.614Z,23.39
2022-08-24T11:34:21.615Z,23.40
2022-08-24T11:35:21.571Z,23.35
2022-08-24T11:36:21.575Z,23.32
2022-08-24T11:37:23.768Z,23.31
2022-08-24T11:38:21.529Z,23.32
2022-08-24T11:39:21.516Z,23.38
2022-08-24T11:40:21.605Z,23.46
2022-08-24T11:41:21.498Z,23.65
2022-08-24T11:42:21.518Z,23.70
2022-08-24T11:43:22.490Z,23.75
2022-08-24T11:44:21.477Z,23.75
2022-08-24T11:45:21.453Z,23.83
2022-08-24T11:46:21.477Z,23.88
2022-08-24T11:47:21.426Z,24.00
2022-08-24T11:48:24.673Z,24.02
2022-08-24T11:49:22.405Z,24.03
2022-08-24T11:50:21.423Z,24.13
2022-08-24T11:51:21.419Z,24.18
2022-08-24T11:52:22.156Z,24.25
2022-08-24T11:53:21.368Z,24.30
2022-08-24T11:54:21.385Z,24.25
2022-08-24T11:55:24.231Z,24.42
2022-08-24T11:56:21.615Z,24.43
2022-08-24T11:57:21.355Z,24.47
2022-08-24T11:58:21.307Z,24.64
2022-08-24T11:59:21.305Z,24.68
2022-08-24T12:00:21.292Z,24.69
2022-08-24T12:01:21.300Z,24.62
2022-08-24T12:02:21.445Z,24.62
2022-08-24T12:03:21.387Z,24.68
2022-08-24T12:04:21.252Z,24.62
2022-08-24T12:05:21.256Z,24.62
2022-08-24T12:06:21.232Z,24.69
2022-08-24T12:07:21.238Z,24.67
2022-08-24T12:08:21.229Z,24.73
2022-08-24T12:09:21.183Z,24.65
2022-08-24T12:10:21.175Z,24.67
2022-08-24T12:11:21.162Z,24.68
2022-08-24T12:12:21.163Z,24.61
2022-08-24T12:13:21.183Z,24.62
2022-08-24T12:14:21.129Z,24.49
2022-08-24T12:15:21.118Z,24.50
2022-08-24T12:16:21.152Z,24.46
2022-08-24T12:17:21.098Z,24.49
2022-08-24T12:18:21.108Z,24.35
2022-08-24T12:19:21.110Z,24.34
2022-08-24T12:20:21.062Z,24.39
2022-08-24T12:21:21.052Z,24.27
2022-08-24T12:22:21.071Z,24.18
2022-08-24T12:23:21.035Z,24.16
2022-08-24T12:24:21.041Z,24.10
2022-08-24T12:25:21.061Z,24.09
2022-08-24T12:26:20.997Z,24.08
2022-08-24T12:27:21.023Z,24.03
2022-08-24T12:28:21.002Z,24.00
2022-08-24T12:29:20.974Z,23.95
2022-08-24T12:30:20.967Z,23.90
2022-08-24T12:31:21.046Z,23.83
2022-08-24T12:32:20.951Z,23.85
2022-08-24T12:33:20.924Z,23.73
2022-08-24T12:34:20.911Z,23.78
2022-08-24T12:35:20.914Z,23.75
2022-08-24T12:36:20.922Z,23.72
2022-08-24T12:37:20.886Z,23.80
2022-08-24T12:38:20.867Z,23.84
2022-08-24T12:39:20.895Z,23.84
2022-08-24T12:40:20.956Z,23.94
2022-08-24T12:41:20.851Z,23.98
2022-08-24T12:42:20.822Z,24.02
2022-08-24T12:43:20.864Z,24.03
2022-08-24T12:44:20.824Z,24.10
2022-08-24T12:45:20.800Z,24.15
2022-08-24T12:46:20.864Z,24.25
2022-08-24T12:47:20.778Z,24.22
2022-08-24T12:48:20.797Z,24.30
2022-08-24T12:49:20.756Z,24.27
2022-08-24T12:50:25.010Z,24.34
2022-08-24T12:51:20.744Z,24.32
2022-08-24T12:52:20.723Z,24.43
2022-08-24T12:53:20.725Z,24.49